createdAt,value
2023-01-30T00:01:38.545Z,5.83
2023-01-30T00:04:05.132Z,5.84
2023-01-30T00:06:31.646Z,5.84
2023-01-30T00:08:58.474Z,5.89
2023-01-30T00:11:25.340Z,5.92
2023-01-30T00:13:51.924Z,5.98
2023-01-30T00:16:18.676Z,6.00
2023-01-30T00:18:45.517Z,6.04
2023-01-30T00:21:14.489Z,6.08
2023-01-30T00:23:41.268Z,6.10
2023-01-30T00:26:08.344Z,6.14
2023-01-30T00:28:34.995Z,6.14
2023-01-30T00:31:01.677Z,6.14
2023-01-30T00:33:28.797Z,6.16
2023-01-30T00:35:56.860Z,6.20
2023-01-30T00:38:24.639Z,6.24
2023-01-30T00:40:51.200Z,6.25
2023-01-30T00:43:37.810Z,6.30
2023-01-30T00:46:29.656Z,6.34
2023-01-30T00:48:56.193Z,6.37
2023-01-30T00:51:22.881Z,6.36
2023-01-30T00:53:49.428Z,6.39
2023-01-30T00:56:15.954Z,6.40
2023-01-30T00:58:42.397Z,6.43
2023-01-30T01:01:08.911Z,6.50
2023-01-30T01:03:35.499Z,6.51
2023-01-30T01:06:01.903Z,6.52
2023-01-30T01:08:28.564Z,6.54
2023-01-30T01:10:55.099Z,6.58
2023-01-30T01:13:21.744Z,6.59
2023-01-30T01:15:49.651Z,6.58
2023-01-30T01:18:16.090Z,6.59
2023-01-30T01:20:42.680Z,6.59
2023-01-30T01:23:10.822Z,6.57
2023-01-30T01:25:37.309Z,6.56
2023-01-30T01:28:04.092Z,6.54
2023-01-30T01:30:30.741Z,6.55
2023-01-30T01:32:57.594Z,6.55
2023-01-30T01:35:24.114Z,6.53
2023-01-30T01:37:54.736Z,6.53
2023-01-30T01:40:41.340Z,6.52
2023-01-30T01:43:23.505Z,6.50
2023-01-30T01:45:55.161Z,6.53
2023-01-30T01:48:32.856Z,6.52
2023-01-30T01:51:04.928Z,6.52
2023-01-30T01:53:39.013Z,6.54
2023-01-30T01:56:06.425Z,6.53
2023-01-30T01:58:41.630Z,6.54
2023-01-30T02:01:08.213Z,6.53
2023-01-30T02:03:38.349Z,6.52
2023-01-30T02:06:05.724Z,6.49
2023-01-30T02:08:37.396Z,6.50
2023-01-30T02:11:22.256Z,6.52
2023-01-30T02:13:50.814Z,6.52
2023-01-30T02:16:18.017Z,6.55
2023-01-30T02:18:46.819Z,6.59
2023-01-30T02:21:44.178Z,6.59
2023-01-30T02:24:29.901Z,6.60
2023-01-30T02:27:15.342Z,6.63
2023-01-30T02:30:09.983Z,6.63
2023-01-30T02:33:04.205Z,6.62
2023-01-30T02:35:42.146Z,6.63
2023-01-30T02:38:49.331Z,6.61
2023-01-30T02:41:30.646Z,6.64
2023-01-30T02:44:00.232Z,6.61
2023-01-30T02:46:38.594Z,6.59
2023-01-30T02:49:17.880Z,6.59
2023-01-30T02:51:47.355Z,6.57
2023-01-30T02:54:15.134Z,6.56
2023-01-30T02:56:50.056Z,6.55
2023-01-30T02:59:25.798Z,6.54
2023-01-30T03:02:22.853Z,6.53
2023-01-30T03:04:58.623Z,6.54
2023-01-30T03:07:28.033Z,6.55
2023-01-30T03:09:57.461Z,6.56
2023-01-30T03:12:53.271Z,6.56
2023-01-30T03:15:19.966Z,6.56
2023-01-30T03:17:48.050Z,6.58
2023-01-30T03:20:16.652Z,6.58
2023-01-30T03:22:43.156Z,6.59
2023-01-30T03:25:12.996Z,6.60
2023-01-30T03:27:41.210Z,6.59
2023-01-30T03:30:08.511Z,6.57
2023-01-30T03:32:35.240Z,6.60
2023-01-30T03:35:01.770Z,6.64
2023-01-30T03:37:28.503Z,6.67
2023-01-30T03:39:55.109Z,6.69
2023-01-30T03:42:21.942Z,6.70
2023-01-30T03:44:48.516Z,6.73
2023-01-30T03:47:15.038Z,6.76
2023-01-30T03:49:41.541Z,6.77
2023-01-30T03:52:09.135Z,6.77
2023-01-30T03:54:35.646Z,6.82
2023-01-30T03:57:02.170Z,6.81
2023-01-30T03:59:28.668Z,6.83
2023-01-30T04:01:55.301Z,6.91
2023-01-30T04:04:22.905Z,6.98
2023-01-30T04:06:49.458Z,6.99
2023-01-30T04:09:16.143Z,7.03
2023-01-30T04:11:42.650Z,7.07
2023-01-30T04:14:09.152Z,7.09
2023-01-30T04:16:35.735Z,7.07
2023-01-30T04:19:02.295Z,7.07
2023-01-30T04:21:28.854Z,7.11
2023-01-30T04:23:55.267Z,7.14
2023-01-30T04:26:21.873Z,7.20
2023-01-30T04:28:48.475Z,7.23
2023-01-30T04:31:15.217Z,7.24
2023-01-30T04:33:42.058Z,7.24
2023-01-30T04:36:09.685Z,7.25
2023-01-30T04:38:36.860Z,7.22
2023-01-30T04:41:04.192Z,7.27
2023-01-30T04:43:31.466Z,7.25
2023-01-30T04:45:58.594Z,7.24
2023-01-30T04:48:25.890Z,7.22
2023-01-30T04:50:54.899Z,7.22
2023-01-30T04:53:22.088Z,7.23
2023-01-30T04:55:48.692Z,7.27
2023-01-30T04:58:16.437Z,7.28
2023-01-30T05:00:42.970Z,7.24
2023-01-30T05:03:09.457Z,7.22
2023-01-30T05:05:36.043Z,7.18
2023-01-30T05:08:02.679Z,7.24
2023-01-30T05:10:29.370Z,7.23
2023-01-30T05:12:55.870Z,7.26
2023-01-30T05:15:22.368Z,7.26
2023-01-30T05:17:48.854Z,7.23
2023-01-30T05:20:15.387Z,7.22
2023-01-30T05:22:41.879Z,7.22
2023-01-30T05:25:08.930Z,7.21
2023-01-30T05:27:35.551Z,7.21
2023-01-30T05:30:02.310Z,7.18
2023-01-30T05:32:31.114Z,7.15
2023-01-30T05:34:57.569Z,7.14
2023-01-30T05:37:24.628Z,7.13
2023-01-30T05:39:51.224Z,7.12
2023-01-30T05:42:18.157Z,7.10
2023-01-30T05:44:44.675Z,7.07
2023-01-30T05:47:11.244Z,7.07
2023-01-30T05:49:37.725Z,7.04
2023-01-30T05:52:04.308Z,7.03
2023-01-30T05:54:30.926Z,7.02
2023-01-30T05:56:57.487Z,6.95
2023-01-30T05:59:24.179Z,6.93
2023-01-30T06:01:50.794Z,6.90
2023-01-30T06:04:17.240Z,6.87
2023-01-30T06:06:43.748Z,6.86
2023-01-30T06:09:11.090Z,6.79
2023-01-30T06:11:37.907Z,6.73
2023-01-30T06:14:04.402Z,6.64
2023-01-30T06:16:31.037Z,6.58
2023-01-30T06:18:57.625Z,6.50
2023-01-30T06:21:24.209Z,6.46
2023-01-30T06:23:50.784Z,6.44
2023-01-30T06:26:17.347Z,6.40
2023-01-30T06:28:44.349Z,6.38
2023-01-30T06:31:11.638Z,6.29
2023-01-30T06:33:38.234Z,6.24
2023-01-30T06:36:04.871Z,6.15
2023-01-30T06:38:31.544Z,6.11
2023-01-30T06:40:58.528Z,6.03
2023-01-30T06:43:25.064Z,6.02
2023-01-30T06:45:51.564Z,5.97
2023-01-30T06:48:18.159Z,5.94
2023-01-30T06:50:47.860Z,5.90
2023-01-30T06:53:14.310Z,5.89
2023-01-30T06:55:40.812Z,5.84
2023-01-30T06:58:10.245Z,5.85
2023-01-30T07:00:40.318Z,5.82
2023-01-30T07:03:11.597Z,5.85
2023-01-30T07:05:40.357Z,5.83
2023-01-30T07:08:07.093Z,5.84
2023-01-30T07:10:35.393Z,5.83
2023-01-30T07:13:02.437Z,5.84
2023-01-30T07:15:29.310Z,5.88
2023-01-30T07:17:55.832Z,5.83
2023-01-30T07:20:22.779Z,5.80
2023-01-30T07:22:54.145Z,5.84
2023-01-30T07:25:21.945Z,5.83
2023-01-30T07:27:59.832Z,5.84
2023-01-30T07:30:28.684Z,5.80
2023-01-30T07:32:57.891Z,5.78
2023-01-30T07:35:25.905Z,5.80
2023-01-30T07:37:52.471Z,5.80
2023-01-30T07:40:20.329Z,5.79
2023-01-30T07:43:01.122Z,5.81
2023-01-30T07:45:34.514Z,5.83
2023-01-30T07:48:01.067Z,5.89
2023-01-30T07:50:27.710Z,5.91
2023-01-30T07:52:54.189Z,5.88
2023-01-30T07:55:20.891Z,5.89
2023-01-30T07:57:47.595Z,5.88
2023-01-30T08:00:15.024Z,5.84
2023-01-30T08:02:41.487Z,5.84
2023-01-30T08:05:08.552Z,5.89
2023-01-30T08:07:35.085Z,5.93
2023-01-30T08:10:01.646Z,5.96
2023-01-30T08:12:29.221Z,5.95
2023-01-30T08:14:56.001Z,5.95
2023-01-30T08:17:23.884Z,5.97
2023-01-30T08:19:50.486Z,5.99
2023-01-30T08:22:17.775Z,6.08
2023-01-30T08:24:44.271Z,6.16
2023-01-30T08:27:10.809Z,6.27
2023-01-30T08:29:37.366Z,6.34
2023-01-30T08:32:04.191Z,6.42
2023-01-30T08:34:30.697Z,6.46
2023-01-30T08:36:57.284Z,6.46
2023-01-30T08:39:23.867Z,6.49
2023-01-30T08:41:50.636Z,6.55
2023-01-30T08:44:17.242Z,6.57
2023-01-30T08:46:43.898Z,6.55
2023-01-30T08:49:11.074Z,6.57
2023-01-30T08:51:38.471Z,6.58
2023-01-30T08:54:07.544Z,6.59
2023-01-30T08:56:34.519Z,6.61
2023-01-30T08:59:01.071Z,6.62
2023-01-30T09:01:27.801Z,6.64
2023-01-30T09:03:54.357Z,6.65
2023-01-30T09:06:20.790Z,6.71
2023-01-30T09:08:47.332Z,6.75
2023-01-30T09:11:13.835Z,6.77
2023-01-30T09:13:43.538Z,6.79
2023-01-30T09:16:12.984Z,6.80
2023-01-30T09:18:41.614Z,6.80
2023-01-30T09:21:09.605Z,6.80
2023-01-30T09:23:36.522Z,6.80
2023-01-30T09:26:04.519Z,6.80
2023-01-30T09:28:31.214Z,6.82
2023-01-30T09:30:59.616Z,6.82
2023-01-30T09:33:26.740Z,6.85
2023-01-30T09:35:53.942Z,6.87
2023-01-30T09:38:21.702Z,6.89
2023-01-30T09:41:00.294Z,6.94
2023-01-30T09:43:26.787Z,6.98
2023-01-30T09:46:12.284Z,7.00
2023-01-30T09:48:42.628Z,7.04
2023-01-30T09:51:27.586Z,7.07
2023-01-30T09:54:12.903Z,7.10
2023-01-30T09:56:39.585Z,7.11
2023-01-30T09:59:06.982Z,7.13
2023-01-30T10:01:56.259Z,7.11
2023-01-30T10:04:42.008Z,7.13
2023-01-30T10:08:06.198Z,7.14
2023-01-30T10:10:55.108Z,7.15
2023-01-30T10:13:33.320Z,7.14
2023-01-30T10:16:35.141Z,7.18
2023-01-30T10:19:35.360Z,7.21
2023-01-30T10:22:09.716Z,7.26
2023-01-30T10:24:54.958Z,7.29
2023-01-30T10:27:26.438Z,7.33
2023-01-30T10:30:00.731Z,7.34
2023-01-30T10:32:42.038Z,7.35
2023-01-30T10:35:23.474Z,7.34
2023-01-30T10:37:58.684Z,7.32
2023-01-30T10:40:28.867Z,7.33
2023-01-30T10:43:22.332Z,7.34
2023-01-30T10:46:01.718Z,7.32
2023-01-30T10:49:00.759Z,7.32
2023-01-30T10:51:55.525Z,7.32
2023-01-30T10:54:28.967Z,7.32
2023-01-30T10:57:08.044Z,7.30
2023-01-30T11:00:02.375Z,7.30
2023-01-30T11:02:51.677Z,7.45
2023-01-30T11:05:21.080Z,7.56
2023-01-30T11:07:48.786Z,7.82
2023-01-30T11:10:19.293Z,8.09
2023-01-30T11:12:46.814Z,8.26
2023-01-30T11:15:13.578Z,8.41
2023-01-30T11:17:43.237Z,8.47
2023-01-30T11:20:17.020Z,8.47
2023-01-30T11:23:09.005Z,8.41
2023-01-30T11:25:59.291Z,8.30
2023-01-30T11:28:41.560Z,8.23
2023-01-30T11:31:28.239Z,8.25
2023-01-30T11:34:06.497Z,8.25
2023-01-30T11:36:35.410Z,8.18
2023-01-30T11:39:21.951Z,8.26
2023-01-30T11:41:57.731Z,8.41
2023-01-30T11:44:35.810Z,8.54
2023-01-30T11:47:13.548Z,8.64
2023-01-30T11:49:57.270Z,8.60
2023-01-30T11:52:35.081Z,8.65
2023-01-30T11:55:07.788Z,8.77
2023-01-30T11:57:43.058Z,8.78
2023-01-30T12:00:22.399Z,8.74
2023-01-30T12:02:51.183Z,8.73
2023-01-30T12:05:30.481Z,8.57
2023-01-30T12:08:14.925Z,8.52
2023-01-30T12:10:43.673Z,8.47
2023-01-30T12:13:38.851Z,8.52
2023-01-30T12:16:22.692Z,8.57
2023-01-30T12:19:16.309Z,8.59
2023-01-30T12:21:49.356Z,8.53
2023-01-30T12:24:25.898Z,8.43
2023-01-30T12:27:09.111Z,8.37
2023-01-30T12:29:43.487Z,8.37
2023-01-30T12:32:21.017Z,8.38
2023-01-30T12:34:48.446Z,8.34
2023-01-30T12:37:44.678Z,8.29
2023-01-30T12:40:30.517Z,8.26
2023-01-30T12:43:15.889Z,8.26
2023-01-30T12:46:36.784Z,8.26
2023-01-30T12:49:11.639Z,8.25
2023-01-30T12:51:54.869Z,8.30
2023-01-30T12:54:24.284Z,8.31
2023-01-30T12:57:18.642Z,8.28
2023-01-30T13:00:09.463Z,8.23
2023-01-30T13:02:48.762Z,8.22
2023-01-30T13:05:29.977Z,8.19
2023-01-30T13:08:21.857Z,8.21
2023-01-30T13:10:56.762Z,8.17
2023-01-30T13:13:42.448Z,8.17
2023-01-30T13:16:37.609Z,8.16
2023-01-30T13:19:14.145Z,8.14
2023-01-30T13:21:55.695Z,8.13
2023-01-30T13:24:30.139Z,8.12
2023-01-30T13:27:00.235Z,8.10
2023-01-30T13:29:38.967Z,8.09
2023-01-30T13:32:22.148Z,8.07
2023-01-30T13:34:49.560Z,8.05
2023-01-30T13:37:19.083Z,8.06
2023-01-30T13:39:52.962Z,8.07
2023-01-30T13:42:25.536Z,8.06
2023-01-30T13:44:54.075Z,8.06
2023-01-30T13:47:44.999Z,8.10
2023-01-30T13:50:33.169Z,8.19
2023-01-30T13:53:13.197Z,8.20
2023-01-30T13:56:16.225Z,8.20
2023-01-30T13:59:03.025Z,8.20
2023-01-30T14:02:03.832Z,8.13
2023-01-30T14:04:30.392Z,8.12
2023-01-30T14:07:16.366Z,8.10
2023-01-30T14:10:08.810Z,8.10
2023-01-30T14:12:46.240Z,8.08
2023-01-30T14:15:12.666Z,8.08
2023-01-30T14:17:40.089Z,8.06
2023-01-30T14:20:20.043Z,8.04
2023-01-30T14:22:55.622Z,8.01
2023-01-30T14:25:25.429Z,7.99
2023-01-30T14:27:54.183Z,7.97
2023-01-30T14:30:50.607Z,7.94
2023-01-30T14:36:16.720Z,7.92
2023-01-30T14:38:45.463Z,7.89
2023-01-30T14:41:17.277Z,7.89
2023-01-30T15:28:39.234Z,7.75
2023-01-30T15:31:06.085Z,7.75
2023-01-30T15:33:32.909Z,7.74
2023-01-30T15:36:00.577Z,7.73
2023-01-30T15:38:28.760Z,7.72
2023-01-30T15:40:58.256Z,7.71
2023-01-30T15:43:52.437Z,7.68
2023-01-30T15:46:40.295Z,7.69
2023-01-30T15:49:31.155Z,7.69
2023-01-30T15:52:02.659Z,7.66
2023-01-30T15:54:29.478Z,7.64
2023-01-30T15:56:59.376Z,7.62
2023-01-30T15:59:28.857Z,7.64
2023-01-30T16:02:02.725Z,7.59
2023-01-30T16:04:30.282Z,7.56
2023-01-30T16:06:56.939Z,7.54
2023-01-30T16:09:25.518Z,7.53
2023-01-30T16:11:52.256Z,7.46
2023-01-30T16:14:20.981Z,7.37
2023-01-30T16:16:53.841Z,7.26
2023-01-30T16:19:29.220Z,7.16
2023-01-30T16:22:04.054Z,7.07
2023-01-30T16:24:33.145Z,7.02
2023-01-30T16:27:03.396Z,6.94
2023-01-30T16:29:33.470Z,6.91
2023-01-30T16:32:00.705Z,6.84
2023-01-30T16:34:31.806Z,6.79
2023-01-30T16:37:02.683Z,6.74
2023-01-30T16:39:37.850Z,6.70
2023-01-30T16:42:23.112Z,6.65
2023-01-30T16:44:49.807Z,6.60
2023-01-30T16:47:24.202Z,6.56
2023-01-30T16:49:52.896Z,6.53
2023-01-30T16:52:38.196Z,6.56
2023-01-30T16:55:07.723Z,6.52
2023-01-30T16:57:43.226Z,6.46
2023-01-30T17:00:13.485Z,6.45
2023-01-30T17:02:41.764Z,6.46
2023-01-30T17:05:14.295Z,6.40
2023-01-30T17:07:40.777Z,6.36
2023-01-30T17:10:42.103Z,6.32
2023-01-30T17:13:32.458Z,6.27
2023-01-30T17:16:27.107Z,6.27
2023-01-30T17:18:56.246Z,6.24
2023-01-30T17:21:25.939Z,6.19
2023-01-30T17:23:56.479Z,6.15
2023-01-30T17:26:23.161Z,6.12
2023-01-30T17:28:49.728Z,6.07
2023-01-30T17:31:17.481Z,6.03
2023-01-30T17:33:44.060Z,5.97
2023-01-30T17:36:23.045Z,5.95
2023-01-30T17:38:50.582Z,5.96
2023-01-30T17:41:33.484Z,5.97
2023-01-30T17:44:00.114Z,5.94
2023-01-30T17:46:36.803Z,5.93
2023-01-30T17:49:03.713Z,5.89
2023-01-30T17:51:30.247Z,5.83
2023-01-30T17:53:56.772Z,5.81
2023-01-30T17:56:31.031Z,5.78
2023-01-30T17:58:58.647Z,5.76
2023-01-30T18:01:25.261Z,5.78
2023-01-30T18:03:51.855Z,5.79
2023-01-30T18:06:18.584Z,5.77
2023-01-30T18:08:47.954Z,5.76
2023-01-30T18:11:16.063Z,5.75
2023-01-30T18:13:42.914Z,5.75
2023-01-30T18:16:17.036Z,5.71
2023-01-30T18:18:43.619Z,5.66
2023-01-30T18:21:10.168Z,5.63
2023-01-30T18:23:37.315Z,5.58
2023-01-30T18:26:04.981Z,5.52
2023-01-30T18:28:31.530Z,5.48
2023-01-30T18:30:58.783Z,5.43
2023-01-30T18:33:25.511Z,5.39
2023-01-30T18:35:52.058Z,5.34
2023-01-30T18:38:18.561Z,5.30
2023-01-30T18:40:45.191Z,5.25
2023-01-30T18:43:11.958Z,5.21
2023-01-30T18:45:38.510Z,5.17
2023-01-30T18:48:05.458Z,5.12
2023-01-30T18:50:32.109Z,5.08
2023-01-30T18:52:58.670Z,5.07
2023-01-30T18:55:25.721Z,5.05
2023-01-30T18:57:52.685Z,5.00
2023-01-30T19:00:21.524Z,4.98
2023-01-30T19:02:54.531Z,5.00
2023-01-30T19:05:21.296Z,5.02
2023-01-30T19:07:50.299Z,4.99
2023-01-30T19:10:17.967Z,4.92
2023-01-30T19:13:03.799Z,4.88
2023-01-30T19:15:30.566Z,4.85
2023-01-30T19:17:58.234Z,4.82
2023-01-30T19:20:25.341Z,4.79
2023-01-30T19:22:54.817Z,4.74
2023-01-30T19:25:21.623Z,4.73
2023-01-30T19:27:48.160Z,4.71
2023-01-30T19:30:15.097Z,4.67
2023-01-30T19:32:41.676Z,4.62
2023-01-30T19:35:08.629Z,4.57
2023-01-30T19:37:35.990Z,4.50
2023-01-30T19:40:08.441Z,4.46
2023-01-30T19:42:40.225Z,4.41
2023-01-30T19:45:09.706Z,4.35
2023-01-30T19:47:36.320Z,4.28
2023-01-30T19:50:02.957Z,4.22
2023-01-30T19:52:29.751Z,4.16
2023-01-30T19:54:56.260Z,4.12
2023-01-30T19:57:23.033Z,4.07
2023-01-30T19:59:49.640Z,4.03
2023-01-30T20:02:16.368Z,4.01
2023-01-30T20:04:42.926Z,3.97
2023-01-30T20:07:09.561Z,3.98
2023-01-30T20:09:36.182Z,3.98
2023-01-30T20:12:03.030Z,3.94
2023-01-30T20:14:29.554Z,3.94
2023-01-30T20:16:56.016Z,3.93
2023-01-30T20:19:22.638Z,3.89
2023-01-30T20:21:49.413Z,3.84
2023-01-30T20:24:16.628Z,3.82
2023-01-30T20:26:46.388Z,3.79
2023-01-30T20:29:16.826Z,3.78
2023-01-30T20:31:43.789Z,3.76
2023-01-30T20:34:13.416Z,3.77
2023-01-30T20:36:40.295Z,3.76
2023-01-30T20:39:07.741Z,3.75
2023-01-30T20:41:36.629Z,3.75
2023-01-30T20:44:04.100Z,3.74
2023-01-30T20:46:35.017Z,3.72
2023-01-30T20:49:01.737Z,3.69
2023-01-30T20:51:31.520Z,3.65
2023-01-30T20:54:00.610Z,3.61
2023-01-30T20:56:34.075Z,3.58
2023-01-30T20:59:02.464Z,3.58
2023-01-30T21:01:29.423Z,3.57
2023-01-30T21:03:56.321Z,3.58
2023-01-30T21:06:41.681Z,3.56
2023-01-30T21:09:20.013Z,3.54
2023-01-30T21:11:47.639Z,3.52
2023-01-30T21:14:15.886Z,3.51
2023-01-30T21:16:42.760Z,3.47
2023-01-30T21:19:13.717Z,3.43
2023-01-30T21:21:50.433Z,3.41
2023-01-30T21:24:19.623Z,3.39
2023-01-30T21:26:47.697Z,3.38
2023-01-30T21:29:17.058Z,3.36
2023-01-30T21:31:45.008Z,3.32
2023-01-30T21:34:12.501Z,3.29
2023-01-30T21:36:39.390Z,3.26
2023-01-30T21:39:25.184Z,3.22
2023-01-30T21:42:10.321Z,3.19
2023-01-30T21:44:40.832Z,3.16
2023-01-30T21:47:08.117Z,3.15
2023-01-30T21:49:36.798Z,3.12
2023-01-30T21:52:03.691Z,3.11
2023-01-30T21:54:30.193Z,3.09
2023-01-30T21:56:56.997Z,3.07
2023-01-30T21:59:23.505Z,3.08
2023-01-30T22:01:50.375Z,3.11
2023-01-30T22:04:16.906Z,3.12
2023-01-30T22:06:44.471Z,3.17
2023-01-30T22:09:15.788Z,3.21
2023-01-30T22:11:46.181Z,3.25
2023-01-30T22:14:14.085Z,3.29
2023-01-30T22:16:41.519Z,3.34
2023-01-30T22:19:08.461Z,3.40
2023-01-30T22:21:37.874Z,3.41
2023-01-30T22:24:07.565Z,3.42
2023-01-30T22:26:34.413Z,3.40
2023-01-30T22:29:03.341Z,3.36
2023-01-30T22:31:34.685Z,3.32
2023-01-30T22:34:02.813Z,3.28
2023-01-30T22:36:31.361Z,3.25
2023-01-30T22:38:57.984Z,3.20
2023-01-30T22:41:27.124Z,3.15
2023-01-30T22:43:58.255Z,3.09
2023-01-30T22:46:30.175Z,3.05
2023-01-30T22:48:57.479Z,3.00
2023-01-30T22:51:26.383Z,2.95
2023-01-30T22:53:55.876Z,2.94
2023-01-30T22:56:39.577Z,2.90
2023-01-30T22:59:07.344Z,2.90
2023-01-30T23:01:37.175Z,2.83
2023-01-30T23:04:25.913Z,2.78
2023-01-30T23:06:52.642Z,2.74
2023-01-30T23:09:21.896Z,2.70
2023-01-30T23:12:14.124Z,2.66
2023-01-30T23:14:42.994Z,2.60
2023-01-30T23:17:32.714Z,2.56
2023-01-30T23:19:59.338Z,2.53
2023-01-30T23:22:25.921Z,2.49
2023-01-30T23:24:52.686Z,2.47
2023-01-30T23:27:20.660Z,2.41
2023-01-30T23:29:47.349Z,2.40
2023-01-30T23:32:15.312Z,2.37
2023-01-30T23:34:42.106Z,2.38
2023-01-30T23:37:08.636Z,2.32
2023-01-30T23:39:35.491Z,2.24
2023-01-30T23:42:02.242Z,2.19
2023-01-30T23:44:28.684Z,2.18
2023-01-30T23:46:55.234Z,2.14
2023-01-30T23:49:21.832Z,2.12
2023-01-30T23:51:48.463Z,2.07
2023-01-30T23:54:15.028Z,2.00
2023-01-30T23:56:43.665Z,1.94
2023-01-30T23:59:11.301Z,1.92
